London Biggin Hill Airport

Airport
ICAO code: 
EGKB
IATA Code: 
BQH
Summary
ICAO Region: 
EUR
Territory: 
Location: 
Biggin Hill, London, England
Serving: 
London
Elevation: 
599 ft
Coordinates: 
Aerial View: 
51° 19' 35.461" N, 0° 1' 52.679" E
Metar
Observation
EGKB 190720Z 24006KT 210V280 9999 BKN022 04/02 Q1026
Station
Biggin Hill
Date/Time
2022-01-19 07:20:00
Wind direction
240°
Wind speed
06 kts
Lowest cloud amount
broken clouds
Temperature
4°C
Dew point
2°C
Humidity
86%
QNH
1026 hPa
Weather condition
n/a

Description

London Biggin Hill Airport is an airport at Biggin Hill in the London Borough of Bromley, located 12 nm south southeast of London, United Kingdom. The airport was formerly the Royal Air Force station RAF Biggin Hill, and a small enclave on the airport still retains that designation.

Climatology

Temperate Marine climate/Oceanic climate (Köppen climate classification Cfb). Moderately cool summer and comparatively warm winter with a temperature range of only 14°C. Prevailing south-westerly winds from the Atlantic Ocean.

Runways

Designator Length Width Surface Rops
11/29 792 18 ASP Yes/Yes
3/21 1802 45 ASP Yes/Yes
Airport map: 
Aerial View: 

Accidents and Serious Incidents at or in the vicinity of EGKB

SKYbrary Partners:

Safety knowledge contributed by: